sensor_id;sensor_type;location;lat;lon;timestamp;P1;P2;P0
63662;PMS5003;49815;51.618;0.336;2022-09-06T00:01:28;9;9;
63662;PMS5003;49815;51.618;0.336;2022-09-06T00:03:53;10;7;
63662;PMS5003;49815;51.618;0.336;2022-09-06T00:06:19;7;7;
63662;PMS5003;49815;51.618;0.336;2022-09-06T00:08:44;6;6;
63662;PMS5003;49815;51.618;0.336;2022-09-06T00:11:10;8;6;
63662;PMS5003;49815;51.618;0.336;2022-09-06T00:13:35;9;9;
63662;PMS5003;49815;51.618;0.336;2022-09-06T00:16:03;8;6;
63662;PMS5003;49815;51.618;0.336;2022-09-06T00:18:25;9;7;
63662;PMS5003;49815;51.618;0.336;2022-09-06T00:20:50;7;7;
63662;PMS5003;49815;51.618;0.336;2022-09-06T00:23:15;7;7;
63662;PMS5003;49815;51.618;0.336;2022-09-06T00:25:40;9;8;
63662;PMS5003;49815;51.618;0.336;2022-09-06T00:28:05;6;6;
63662;PMS5003;49815;51.618;0.336;2022-09-06T00:30:31;8;7;
63662;PMS5003;49815;51.618;0.336;2022-09-06T00:32:57;11;11;
63662;PMS5003;49815;51.618;0.336;2022-09-06T00:35:22;6;6;
63662;PMS5003;49815;51.618;0.336;2022-09-06T00:37:47;6;6;
63662;PMS5003;49815;51.618;0.336;2022-09-06T00:40:12;8;7;
63662;PMS5003;49815;51.618;0.336;2022-09-06T00:42:37;7;7;
63662;PMS5003;49815;51.618;0.336;2022-09-06T00:45:03;8;8;
63662;PMS5003;49815;51.618;0.336;2022-09-06T00:47:28;6;6;
63662;PMS5003;49815;51.618;0.336;2022-09-06T00:49:53;4;4;
63662;PMS5003;49815;51.618;0.336;2022-09-06T00:52:18;8;7;
63662;PMS5003;49815;51.618;0.336;2022-09-06T00:54:43;8;7;
63662;PMS5003;49815;51.618;0.336;2022-09-06T00:57:09;8;8;
63662;PMS5003;49815;51.618;0.336;2022-09-06T00:59:34;9;9;
63662;PMS5003;49815;51.618;0.336;2022-09-06T01:01:59;8;8;
63662;PMS5003;49815;51.618;0.336;2022-09-06T01:04:24;7;7;
63662;PMS5003;49815;51.618;0.336;2022-09-06T01:06:52;7;7;
63662;PMS5003;49815;51.618;0.336;2022-09-06T01:09:20;8;8;
63662;PMS5003;49815;51.618;0.336;2022-09-06T01:11:45;6;6;
63662;PMS5003;49815;51.618;0.336;2022-09-06T01:14:08;7;7;
63662;PMS5003;49815;51.618;0.336;2022-09-06T01:16:32;7;6;
63662;PMS5003;49815;51.618;0.336;2022-09-06T01:19:00;5;5;
63662;PMS5003;49815;51.618;0.336;2022-09-06T01:21:24;7;7;
63662;PMS5003;49815;51.618;0.336;2022-09-06T01:26:19;9;7;
63662;PMS5003;49815;51.618;0.336;2022-09-06T01:28:37;7;7;
63662;PMS5003;49815;51.618;0.336;2022-09-06T01:31:06;9;8;
63662;PMS5003;49815;51.618;0.336;2022-09-06T01:33:28;11;10;
63662;PMS5003;49815;51.618;0.336;2022-09-06T01:35:54;11;9;
63662;PMS5003;49815;51.618;0.336;2022-09-06T01:38:18;9;8;
63662;PMS5003;49815;51.618;0.336;2022-09-06T01:40:43;8;8;
63662;PMS5003;49815;51.618;0.336;2022-09-06T01:43:09;8;8;
63662;PMS5003;49815;51.618;0.336;2022-09-06T01:45:37;8;8;
63662;PMS5003;49815;51.618;0.336;2022-09-06T01:48:01;10;9;
63662;PMS5003;49815;51.618;0.336;2022-09-06T01:50:30;8;7;
63662;PMS5003;49815;51.618;0.336;2022-09-06T01:52:54;10;10;
63662;PMS5003;49815;51.618;0.336;2022-09-06T01:55:18;9;9;
63662;PMS5003;49815;51.618;0.336;2022-09-06T01:57:46;10;9;
63662;PMS5003;49815;51.618;0.336;2022-09-06T02:00:07;7;6;
63662;PMS5003;49815;51.618;0.336;2022-09-06T02:02:33;13;10;
63662;PMS5003;49815;51.618;0.336;2022-09-06T02:04:58;8;8;
63662;PMS5003;49815;51.618;0.336;2022-09-06T02:07:22;10;9;
63662;PMS5003;49815;51.618;0.336;2022-09-06T02:09:48;10;8;
63662;PMS5003;49815;51.618;0.336;2022-09-06T02:12:12;11;9;
63662;PMS5003;49815;51.618;0.336;2022-09-06T02:14:39;13;13;
63662;PMS5003;49815;51.618;0.336;2022-09-06T02:17:03;8;8;
63662;PMS5003;49815;51.618;0.336;2022-09-06T02:19:30;7;7;
63662;PMS5003;49815;51.618;0.336;2022-09-06T02:21:54;11;8;
63662;PMS5003;49815;51.618;0.336;2022-09-06T02:24:22;7;7;
63662;PMS5003;49815;51.618;0.336;2022-09-06T02:26:44;9;7;
63662;PMS5003;49815;51.618;0.336;2022-09-06T02:29:10;11;11;
63662;PMS5003;49815;51.618;0.336;2022-09-06T02:31:36;14;11;
63662;PMS5003;49815;51.618;0.336;2022-09-06T02:34:00;7;7;
63662;PMS5003;49815;51.618;0.336;2022-09-06T02:36:25;7;7;
63662;PMS5003;49815;51.618;0.336;2022-09-06T02:38:51;7;7;
63662;PMS5003;49815;51.618;0.336;2022-09-06T02:41:16;8;8;
63662;PMS5003;49815;51.618;0.336;2022-09-06T02:43:42;8;7;
63662;PMS5003;49815;51.618;0.336;2022-09-06T02:46:07;8;8;
63662;PMS5003;49815;51.618;0.336;2022-09-06T02:48:32;7;7;
63662;PMS5003;49815;51.618;0.336;2022-09-06T02:51:01;12;8;
63662;PMS5003;49815;51.618;0.336;2022-09-06T02:53:22;10;10;
63662;PMS5003;49815;51.618;0.336;2022-09-06T02:55:48;11;8;
63662;PMS5003;49815;51.618;0.336;2022-09-06T02:58:14;8;7;
63662;PMS5003;49815;51.618;0.336;2022-09-06T03:00:39;7;7;
63662;PMS5003;49815;51.618;0.336;2022-09-06T03:03:04;9;9;
63662;PMS5003;49815;51.618;0.336;2022-09-06T03:05:29;8;7;
63662;PMS5003;49815;51.618;0.336;2022-09-06T03:07:55;13;9;
63662;PMS5003;49815;51.618;0.336;2022-09-06T03:10:20;9;9;
63662;PMS5003;49815;51.618;0.336;2022-09-06T03:12:45;9;8;
63662;PMS5003;49815;51.618;0.336;2022-09-06T03:15:12;7;7;
63662;PMS5003;49815;51.618;0.336;2022-09-06T03:17:37;7;7;
63662;PMS5003;49815;51.618;0.336;2022-09-06T03:20:03;9;8;
63662;PMS5003;49815;51.618;0.336;2022-09-06T03:22:28;10;8;
63662;PMS5003;49815;51.618;0.336;2022-09-06T03:24:53;11;8;
63662;PMS5003;49815;51.618;0.336;2022-09-06T03:27:18;14;10;
63662;PMS5003;49815;51.618;0.336;2022-09-06T03:29:43;9;9;
63662;PMS5003;49815;51.618;0.336;2022-09-06T03:32:09;8;8;
63662;PMS5003;49815;51.618;0.336;2022-09-06T03:34:34;10;10;
63662;PMS5003;49815;51.618;0.336;2022-09-06T03:36:59;10;10;
63662;PMS5003;49815;51.618;0.336;2022-09-06T03:39:24;11;11;
63662;PMS5003;49815;51.618;0.336;2022-09-06T03:41:49;11;10;
63662;PMS5003;49815;51.618;0.336;2022-09-06T03:44:15;9;8;
63662;PMS5003;49815;51.618;0.336;2022-09-06T03:46:40;9;8;
63662;PMS5003;49815;51.618;0.336;2022-09-06T03:49:06;10;10;
63662;PMS5003;49815;51.618;0.336;2022-09-06T03:51:31;9;9;
63662;PMS5003;49815;51.618;0.336;2022-09-06T03:53:56;8;8;
63662;PMS5003;49815;51.618;0.336;2022-09-06T03:56:21;10;10;
63662;PMS5003;49815;51.618;0.336;2022-09-06T03:58:46;9;8;
63662;PMS5003;49815;51.618;0.336;2022-09-06T04:01:12;9;9;
63662;PMS5003;49815;51.618;0.336;2022-09-06T04:03:37;13;11;
63662;PMS5003;49815;51.618;0.336;2022-09-06T04:06:03;12;12;
63662;PMS5003;49815;51.618;0.336;2022-09-06T04:08:27;10;10;
63662;PMS5003;49815;51.618;0.336;2022-09-06T04:10:53;12;11;
63662;PMS5003;49815;51.618;0.336;2022-09-06T04:13:18;14;14;
63662;PMS5003;49815;51.618;0.336;2022-09-06T04:15:44;14;14;
63662;PMS5003;49815;51.618;0.336;2022-09-06T04:18:10;14;13;
63662;PMS5003;49815;51.618;0.336;2022-09-06T04:20:35;14;14;
63662;PMS5003;49815;51.618;0.336;2022-09-06T04:23:02;17;16;
63662;PMS5003;49815;51.618;0.336;2022-09-06T04:25:27;18;17;
63662;PMS5003;49815;51.618;0.336;2022-09-06T04:27:52;17;17;
63662;PMS5003;49815;51.618;0.336;2022-09-06T04:30:17;16;15;
63662;PMS5003;49815;51.618;0.336;2022-09-06T04:32:43;16;15;
63662;PMS5003;49815;51.618;0.336;2022-09-06T04:35:08;16;15;
63662;PMS5003;49815;51.618;0.336;2022-09-06T04:37:34;19;17;
63662;PMS5003;49815;51.618;0.336;2022-09-06T04:40:00;18;15;
63662;PMS5003;49815;51.618;0.336;2022-09-06T04:42:25;18;17;
63662;PMS5003;49815;51.618;0.336;2022-09-06T04:44:50;14;14;
63662;PMS5003;49815;51.618;0.336;2022-09-06T04:47:15;14;13;
63662;PMS5003;49815;51.618;0.336;2022-09-06T04:49:41;15;15;
63662;PMS5003;49815;51.618;0.336;2022-09-06T04:52:07;12;11;
63662;PMS5003;49815;51.618;0.336;2022-09-06T04:54:32;20;17;
63662;PMS5003;49815;51.618;0.336;2022-09-06T04:56:57;14;14;
63662;PMS5003;49815;51.618;0.336;2022-09-06T04:59:23;12;12;
63662;PMS5003;49815;51.618;0.336;2022-09-06T05:01:49;17;17;
63662;PMS5003;49815;51.618;0.336;2022-09-06T05:04:14;16;14;
63662;PMS5003;49815;51.618;0.336;2022-09-06T05:06:39;10;10;
63662;PMS5003;49815;51.618;0.336;2022-09-06T05:09:04;14;14;
63662;PMS5003;49815;51.618;0.336;2022-09-06T05:11:30;14;14;
63662;PMS5003;49815;51.618;0.336;2022-09-06T05:13:56;20;18;
63662;PMS5003;49815;51.618;0.336;2022-09-06T05:16:21;16;16;
63662;PMS5003;49815;51.618;0.336;2022-09-06T05:18:47;13;13;
63662;PMS5003;49815;51.618;0.336;2022-09-06T05:21:12;13;12;
63662;PMS5003;49815;51.618;0.336;2022-09-06T05:23:38;13;12;
63662;PMS5003;49815;51.618;0.336;2022-09-06T05:26:03;15;15;
63662;PMS5003;49815;51.618;0.336;2022-09-06T05:28:28;12;12;
63662;PMS5003;49815;51.618;0.336;2022-09-06T05:33:20;14;12;
63662;PMS5003;49815;51.618;0.336;2022-09-06T05:35:44;12;12;
63662;PMS5003;49815;51.618;0.336;2022-09-06T05:38:09;12;11;
63662;PMS5003;49815;51.618;0.336;2022-09-06T05:40:35;12;12;
63662;PMS5003;49815;51.618;0.336;2022-09-06T05:43:00;11;11;
63662;PMS5003;49815;51.618;0.336;2022-09-06T05:45:26;12;11;
63662;PMS5003;49815;51.618;0.336;2022-09-06T05:47:52;10;10;
63662;PMS5003;49815;51.618;0.336;2022-09-06T05:50:18;17;15;
63662;PMS5003;49815;51.618;0.336;2022-09-06T05:52:43;11;11;
63662;PMS5003;49815;51.618;0.336;2022-09-06T05:55:09;16;16;
63662;PMS5003;49815;51.618;0.336;2022-09-06T05:57:34;12;11;
63662;PMS5003;49815;51.618;0.336;2022-09-06T06:00:00;14;13;
63662;PMS5003;49815;51.618;0.336;2022-09-06T06:02:25;9;9;
63662;PMS5003;49815;51.618;0.336;2022-09-06T06:04:51;16;15;
63662;PMS5003;49815;51.618;0.336;2022-09-06T06:07:16;15;15;
63662;PMS5003;49815;51.618;0.336;2022-09-06T06:09:42;16;15;
63662;PMS5003;49815;51.618;0.336;2022-09-06T06:12:12;17;14;
63662;PMS5003;49815;51.618;0.336;2022-09-06T06:14:33;12;12;
63662;PMS5003;49815;51.618;0.336;2022-09-06T06:16:58;17;16;
63662;PMS5003;49815;51.618;0.336;2022-09-06T06:19:23;14;13;
63662;PMS5003;49815;51.618;0.336;2022-09-06T06:21:49;16;15;
63662;PMS5003;49815;51.618;0.336;2022-09-06T06:24:15;19;17;
63662;PMS5003;49815;51.618;0.336;2022-09-06T06:26:40;19;18;
63662;PMS5003;49815;51.618;0.336;2022-09-06T06:29:06;21;21;
63662;PMS5003;49815;51.618;0.336;2022-09-06T06:31:31;21;21;
63662;PMS5003;49815;51.618;0.336;2022-09-06T06:33:57;14;13;
63662;PMS5003;49815;51.618;0.336;2022-09-06T06:36:23;17;17;
63662;PMS5003;49815;51.618;0.336;2022-09-06T06:38:49;16;14;
63662;PMS5003;49815;51.618;0.336;2022-09-06T06:41:14;14;13;
63662;PMS5003;49815;51.618;0.336;2022-09-06T06:43:39;17;17;
63662;PMS5003;49815;51.618;0.336;2022-09-06T06:46:04;13;13;
63662;PMS5003;49815;51.618;0.336;2022-09-06T06:48:29;24;21;
63662;PMS5003;49815;51.618;0.336;2022-09-06T06:50:54;16;14;
63662;PMS5003;49815;51.618;0.336;2022-09-06T06:53:19;18;13;
63662;PMS5003;49815;51.618;0.336;2022-09-06T06:55:45;16;16;
63662;PMS5003;49815;51.618;0.336;2022-09-06T06:58:10;21;21;
63662;PMS5003;49815;51.618;0.336;2022-09-06T07:00:35;18;15;
63662;PMS5003;49815;51.618;0.336;2022-09-06T07:03:00;18;16;
63662;PMS5003;49815;51.618;0.336;2022-09-06T07:05:26;22;19;
63662;PMS5003;49815;51.618;0.336;2022-09-06T07:07:51;21;18;
63662;PMS5003;49815;51.618;0.336;2022-09-06T07:10:17;25;24;
63662;PMS5003;49815;51.618;0.336;2022-09-06T07:12:42;23;21;
63662;PMS5003;49815;51.618;0.336;2022-09-06T07:15:09;23;23;
63662;PMS5003;49815;51.618;0.336;2022-09-06T07:17:34;26;21;
63662;PMS5003;49815;51.618;0.336;2022-09-06T07:20:00;18;18;
63662;PMS5003;49815;51.618;0.336;2022-09-06T07:22:25;18;18;
63662;PMS5003;49815;51.618;0.336;2022-09-06T07:24:51;20;19;
63662;PMS5003;49815;51.618;0.336;2022-09-06T07:27:17;19;18;
63662;PMS5003;49815;51.618;0.336;2022-09-06T07:29:42;22;21;
63662;PMS5003;49815;51.618;0.336;2022-09-06T07:32:08;22;21;
63662;PMS5003;49815;51.618;0.336;2022-09-06T07:34:33;24;23;
63662;PMS5003;49815;51.618;0.336;2022-09-06T07:36:59;21;20;
63662;PMS5003;49815;51.618;0.336;2022-09-06T07:39:24;18;18;
63662;PMS5003;49815;51.618;0.336;2022-09-06T07:41:50;26;23;
63662;PMS5003;49815;51.618;0.336;2022-09-06T07:44:15;14;14;
63662;PMS5003;49815;51.618;0.336;2022-09-06T07:46:41;17;17;
63662;PMS5003;49815;51.618;0.336;2022-09-06T07:49:06;19;18;
63662;PMS5003;49815;51.618;0.336;2022-09-06T07:51:32;21;18;
63662;PMS5003;49815;51.618;0.336;2022-09-06T07:53:57;23;22;
63662;PMS5003;49815;51.618;0.336;2022-09-06T07:56:23;27;23;
63662;PMS5003;49815;51.618;0.336;2022-09-06T07:58:49;24;20;
63662;PMS5003;49815;51.618;0.336;2022-09-06T08:01:16;18;16;
63662;PMS5003;49815;51.618;0.336;2022-09-06T08:03:39;13;12;
63662;PMS5003;49815;51.618;0.336;2022-09-06T08:06:05;17;16;
63662;PMS5003;49815;51.618;0.336;2022-09-06T08:08:31;16;14;
63662;PMS5003;49815;51.618;0.336;2022-09-06T08:10:57;11;10;
63662;PMS5003;49815;51.618;0.336;2022-09-06T08:13:22;11;10;
63662;PMS5003;49815;51.618;0.336;2022-09-06T08:15:47;16;12;
63662;PMS5003;49815;51.618;0.336;2022-09-06T08:18:12;14;10;
63662;PMS5003;49815;51.618;0.336;2022-09-06T08:20:37;9;9;
63662;PMS5003;49815;51.618;0.336;2022-09-06T08:25:28;8;8;
63662;PMS5003;49815;51.618;0.336;2022-09-06T08:27:53;9;9;
63662;PMS5003;49815;51.618;0.336;2022-09-06T08:30:18;10;7;
63662;PMS5003;49815;51.618;0.336;2022-09-06T08:32:43;6;5;
63662;PMS5003;49815;51.618;0.336;2022-09-06T08:35:09;5;5;
63662;PMS5003;49815;51.618;0.336;2022-09-06T08:37:34;7;7;
63662;PMS5003;49815;51.618;0.336;2022-09-06T08:39:58;13;10;
63662;PMS5003;49815;51.618;0.336;2022-09-06T08:42:24;7;6;
63662;PMS5003;49815;51.618;0.336;2022-09-06T08:44:49;10;7;
63662;PMS5003;49815;51.618;0.336;2022-09-06T08:49:40;11;5;
63662;PMS5003;49815;51.618;0.336;2022-09-06T08:52:08;7;7;
63662;PMS5003;49815;51.618;0.336;2022-09-06T08:54:31;7;5;
63662;PMS5003;49815;51.618;0.336;2022-09-06T08:57:00;8;7;
63662;PMS5003;49815;51.618;0.336;2022-09-06T08:59:19;5;5;
63662;PMS5003;49815;51.618;0.336;2022-09-06T09:01:46;6;5;
63662;PMS5003;49815;51.618;0.336;2022-09-06T09:04:11;7;5;
63662;PMS5003;49815;51.618;0.336;2022-09-06T09:06:35;7;4;
63662;PMS5003;49815;51.618;0.336;2022-09-06T09:09:01;5;3;
63662;PMS5003;49815;51.618;0.336;2022-09-06T09:11:25;5;5;
63662;PMS5003;49815;51.618;0.336;2022-09-06T09:13:52;4;4;
63662;PMS5003;49815;51.618;0.336;2022-09-06T09:16:16;6;5;
63662;PMS5003;49815;51.618;0.336;2022-09-06T09:18:41;7;5;
63662;PMS5003;49815;51.618;0.336;2022-09-06T09:21:06;7;7;
63662;PMS5003;49815;51.618;0.336;2022-09-06T09:23:31;4;3;
63662;PMS5003;49815;51.618;0.336;2022-09-06T09:25:58;5;4;
63662;PMS5003;49815;51.618;0.336;2022-09-06T09:28:22;8;5;
63662;PMS5003;49815;51.618;0.336;2022-09-06T09:30:48;5;5;
63662;PMS5003;49815;51.618;0.336;2022-09-06T09:35:39;8;6;
63662;PMS5003;49815;51.618;0.336;2022-09-06T09:38:02;6;4;
63662;PMS5003;49815;51.618;0.336;2022-09-06T09:40:28;8;4;
63662;PMS5003;49815;51.618;0.336;2022-09-06T09:42:52;6;4;
63662;PMS5003;49815;51.618;0.336;2022-09-06T09:45:22;4;4;
63662;PMS5003;49815;51.618;0.336;2022-09-06T09:47:42;7;3;
63662;PMS5003;49815;51.618;0.336;2022-09-06T09:50:20;6;5;
63662;PMS5003;49815;51.618;0.336;2022-09-06T09:52:33;6;4;
63662;PMS5003;49815;51.618;0.336;2022-09-06T09:54:59;5;5;
63662;PMS5003;49815;51.618;0.336;2022-09-06T09:57:23;6;6;
63662;PMS5003;49815;51.618;0.336;2022-09-06T09:59:49;8;5;
63662;PMS5003;49815;51.618;0.336;2022-09-06T10:02:16;5;5;
63662;PMS5003;49815;51.618;0.336;2022-09-06T10:04:43;5;3;
63662;PMS5003;49815;51.618;0.336;2022-09-06T10:07:06;11;8;
63662;PMS5003;49815;51.618;0.336;2022-09-06T10:09:29;5;2;
63662;PMS5003;49815;51.618;0.336;2022-09-06T10:11:54;6;5;
63662;PMS5003;49815;51.618;0.336;2022-09-06T10:14:25;5;2;
63662;PMS5003;49815;51.618;0.336;2022-09-06T10:16:44;4;3;
63662;PMS5003;49815;51.618;0.336;2022-09-06T10:21:35;4;3;
63662;PMS5003;49815;51.618;0.336;2022-09-06T10:24:01;8;5;
63662;PMS5003;49815;51.618;0.336;2022-09-06T10:26:26;4;4;
63662;PMS5003;49815;51.618;0.336;2022-09-06T10:28:51;8;5;
63662;PMS5003;49815;51.618;0.336;2022-09-06T10:31:25;5;3;
63662;PMS5003;49815;51.618;0.336;2022-09-06T10:33:46;5;5;
63662;PMS5003;49815;51.618;0.336;2022-09-06T10:36:06;2;2;
63662;PMS5003;49815;51.618;0.336;2022-09-06T10:38:35;9;5;
63662;PMS5003;49815;51.618;0.336;2022-09-06T10:40:59;5;4;
63662;PMS5003;49815;51.618;0.336;2022-09-06T10:43:21;5;2;
63662;PMS5003;49815;51.618;0.336;2022-09-06T10:45:52;10;7;
63662;PMS5003;49815;51.618;0.336;2022-09-06T10:48:15;4;2;
63662;PMS5003;49815;51.618;0.336;2022-09-06T10:50:40;7;4;
63662;PMS5003;49815;51.618;0.336;2022-09-06T10:53:05;4;4;
63662;PMS5003;49815;51.618;0.336;2022-09-06T10:55:27;4;4;
63662;PMS5003;49815;51.618;0.336;2022-09-06T10:57:54;5;4;
63662;PMS5003;49815;51.618;0.336;2022-09-06T11:00:18;3;3;
63662;PMS5003;49815;51.618;0.336;2022-09-06T11:02:44;5;4;
63662;PMS5003;49815;51.618;0.336;2022-09-06T11:05:09;5;4;
63662;PMS5003;49815;51.618;0.336;2022-09-06T11:07:35;4;3;
63662;PMS5003;49815;51.618;0.336;2022-09-06T11:09:59;2;2;
63662;PMS5003;49815;51.618;0.336;2022-09-06T11:12:30;4;2;
63662;PMS5003;49815;51.618;0.336;2022-09-06T11:14:48;4;4;
63662;PMS5003;49815;51.618;0.336;2022-09-06T11:17:14;5;3;
63662;PMS5003;49815;51.618;0.336;2022-09-06T11:19:40;6;4;
63662;PMS5003;49815;51.618;0.336;2022-09-06T11:22:09;3;3;
63662;PMS5003;49815;51.618;0.336;2022-09-06T11:24:33;3;3;
63662;PMS5003;49815;51.618;0.336;2022-09-06T11:26:58;4;3;
63662;PMS5003;49815;51.618;0.336;2022-09-06T11:29:20;5;3;
63662;PMS5003;49815;51.618;0.336;2022-09-06T11:31:49;6;6;
63662;PMS5003;49815;51.618;0.336;2022-09-06T11:34:11;6;4;
63662;PMS5003;49815;51.618;0.336;2022-09-06T11:36:36;2;2;
63662;PMS5003;49815;51.618;0.336;2022-09-06T11:39:02;4;4;
63662;PMS5003;49815;51.618;0.336;2022-09-06T11:41:26;3;3;
63662;PMS5003;49815;51.618;0.336;2022-09-06T11:43:51;4;2;
63662;PMS5003;49815;51.618;0.336;2022-09-06T11:51:07;8;4;
63662;PMS5003;49815;51.618;0.336;2022-09-06T11:53:33;2;2;
63662;PMS5003;49815;51.618;0.336;2022-09-06T11:58:24;1;1;
63662;PMS5003;49815;51.618;0.336;2022-09-06T12:08:13;6;3;
63662;PMS5003;49815;51.618;0.336;2022-09-06T12:12:53;3;3;
63662;PMS5003;49815;51.618;0.336;2022-09-06T12:15:23;3;3;
63662;PMS5003;49815;51.618;0.336;2022-09-06T12:17:44;4;2;
63662;PMS5003;49815;51.618;0.336;2022-09-06T12:20:08;4;2;
63662;PMS5003;49815;51.618;0.336;2022-09-06T12:24:59;6;3;
63662;PMS5003;49815;51.618;0.336;2022-09-06T12:27:23;6;4;
63662;PMS5003;49815;51.618;0.336;2022-09-06T12:29:51;4;4;
63662;PMS5003;49815;51.618;0.336;2022-09-06T12:32:15;4;2;
63662;PMS5003;49815;51.618;0.336;2022-09-06T12:34:38;5;5;
63662;PMS5003;49815;51.618;0.336;2022-09-06T12:37:04;9;8;
63662;PMS5003;49815;51.618;0.336;2022-09-06T12:39:29;5;3;
63662;PMS5003;49815;51.618;0.336;2022-09-06T12:41:54;5;3;
63662;PMS5003;49815;51.618;0.336;2022-09-06T12:44:26;4;2;
63662;PMS5003;49815;51.618;0.336;2022-09-06T12:46:44;5;4;
63662;PMS5003;49815;51.618;0.336;2022-09-06T12:49:10;4;4;
63662;PMS5003;49815;51.618;0.336;2022-09-06T12:51:34;4;3;
63662;PMS5003;49815;51.618;0.336;2022-09-06T12:54:00;29;29;
63662;PMS5003;49815;51.618;0.336;2022-09-06T12:56:25;15;15;
63662;PMS5003;49815;51.618;0.336;2022-09-06T12:58:50;14;13;
63662;PMS5003;49815;51.618;0.336;2022-09-06T13:01:16;20;17;
63662;PMS5003;49815;51.618;0.336;2022-09-06T13:03:41;20;20;
63662;PMS5003;49815;51.618;0.336;2022-09-06T13:06:06;9;7;
63662;PMS5003;49815;51.618;0.336;2022-09-06T13:08:32;13;11;
63662;PMS5003;49815;51.618;0.336;2022-09-06T13:10:56;22;21;
63662;PMS5003;49815;51.618;0.336;2022-09-06T13:13:22;2;2;
63662;PMS5003;49815;51.618;0.336;2022-09-06T13:15:46;3;3;
63662;PMS5003;49815;51.618;0.336;2022-09-06T13:18:18;2;2;
63662;PMS5003;49815;51.618;0.336;2022-09-06T13:20:36;3;3;
63662;PMS5003;49815;51.618;0.336;2022-09-06T13:23:05;2;2;
63662;PMS5003;49815;51.618;0.336;2022-09-06T13:25:26;1;1;
63662;PMS5003;49815;51.618;0.336;2022-09-06T13:27:52;4;4;
63662;PMS5003;49815;51.618;0.336;2022-09-06T13:32:44;4;4;
63662;PMS5003;49815;51.618;0.336;2022-09-06T13:35:06;1;1;
63662;PMS5003;49815;51.618;0.336;2022-09-06T13:37:32;1;1;
63662;PMS5003;49815;51.618;0.336;2022-09-06T13:39:57;2;2;
63662;PMS5003;49815;51.618;0.336;2022-09-06T13:42:23;6;2;
63662;PMS5003;49815;51.618;0.336;2022-09-06T13:44:47;6;4;
63662;PMS5003;49815;51.618;0.336;2022-09-06T13:47:12;4;4;
63662;PMS5003;49815;51.618;0.336;2022-09-06T13:49:37;3;1;
63662;PMS5003;49815;51.618;0.336;2022-09-06T13:52:02;2;1;
63662;PMS5003;49815;51.618;0.336;2022-09-06T13:54:27;4;3;
63662;PMS5003;49815;51.618;0.336;2022-09-06T13:56:52;2;2;
63662;PMS5003;49815;51.618;0.336;2022-09-06T13:59:17;2;2;
63662;PMS5003;49815;51.618;0.336;2022-09-06T14:01:43;3;2;
63662;PMS5003;49815;51.618;0.336;2022-09-06T14:04:08;1;1;
63662;PMS5003;49815;51.618;0.336;2022-09-06T14:06:32;2;1;
63662;PMS5003;49815;51.618;0.336;2022-09-06T14:08:57;3;1;
63662;PMS5003;49815;51.618;0.336;2022-09-06T14:11:23;2;2;
63662;PMS5003;49815;51.618;0.336;2022-09-06T14:13:47;0;0;
63662;PMS5003;49815;51.618;0.336;2022-09-06T14:16:12;2;2;
63662;PMS5003;49815;51.618;0.336;2022-09-06T14:18:37;2;2;
63662;PMS5003;49815;51.618;0.336;2022-09-06T14:21:02;3;3;
63662;PMS5003;49815;51.618;0.336;2022-09-06T14:23:27;3;1;
63662;PMS5003;49815;51.618;0.336;2022-09-06T14:25:53;4;3;
63662;PMS5003;49815;51.618;0.336;2022-09-06T14:28:17;0;0;
63662;PMS5003;49815;51.618;0.336;2022-09-06T14:30:43;1;1;
63662;PMS5003;49815;51.618;0.336;2022-09-06T14:33:09;2;2;
63662;PMS5003;49815;51.618;0.336;2022-09-06T14:35:33;4;0;
63662;PMS5003;49815;51.618;0.336;2022-09-06T14:37:58;6;1;
63662;PMS5003;49815;51.618;0.336;2022-09-06T14:40:23;3;1;
63662;PMS5003;49815;51.618;0.336;2022-09-06T14:42:48;1;1;
63662;PMS5003;49815;51.618;0.336;2022-09-06T14:45:13;2;2;
63662;PMS5003;49815;51.618;0.336;2022-09-06T14:47:38;6;2;
63662;PMS5003;49815;51.618;0.336;2022-09-06T14:50:03;2;2;
63662;PMS5003;49815;51.618;0.336;2022-09-06T14:52:28;1;1;
63662;PMS5003;49815;51.618;0.336;2022-09-06T14:54:54;6;3;
63662;PMS5003;49815;51.618;0.336;2022-09-06T14:57:19;4;1;
63662;PMS5003;49815;51.618;0.336;2022-09-06T14:59:44;1;0;
63662;PMS5003;49815;51.618;0.336;2022-09-06T15:02:09;1;1;
63662;PMS5003;49815;51.618;0.336;2022-09-06T15:04:34;4;1;
63662;PMS5003;49815;51.618;0.336;2022-09-06T15:06:59;4;2;
63662;PMS5003;49815;51.618;0.336;2022-09-06T15:09:24;1;0;
63662;PMS5003;49815;51.618;0.336;2022-09-06T15:11:52;2;1;
63662;PMS5003;49815;51.618;0.336;2022-09-06T15:14:15;1;1;
63662;PMS5003;49815;51.618;0.336;2022-09-06T15:16:39;1;1;
63662;PMS5003;49815;51.618;0.336;2022-09-06T15:19:04;4;3;
63662;PMS5003;49815;51.618;0.336;2022-09-06T15:21:30;3;3;
63662;PMS5003;49815;51.618;0.336;2022-09-06T15:23:54;7;3;
63662;PMS5003;49815;51.618;0.336;2022-09-06T15:26:20;4;4;
63662;PMS5003;49815;51.618;0.336;2022-09-06T15:28:45;1;1;
63662;PMS5003;49815;51.618;0.336;2022-09-06T15:31:11;3;1;
63662;PMS5003;49815;51.618;0.336;2022-09-06T15:33:35;5;3;
63662;PMS5003;49815;51.618;0.336;2022-09-06T15:36:01;2;2;
63662;PMS5003;49815;51.618;0.336;2022-09-06T15:38:26;2;1;
63662;PMS5003;49815;51.618;0.336;2022-09-06T15:40:51;2;2;
63662;PMS5003;49815;51.618;0.336;2022-09-06T15:43:16;2;2;
63662;PMS5003;49815;51.618;0.336;2022-09-06T15:45:45;3;3;
63662;PMS5003;49815;51.618;0.336;2022-09-06T15:48:06;4;3;
63662;PMS5003;49815;51.618;0.336;2022-09-06T15:50:32;1;1;
63662;PMS5003;49815;51.618;0.336;2022-09-06T15:52:57;8;4;
63662;PMS5003;49815;51.618;0.336;2022-09-06T15:55:22;4;3;
63662;PMS5003;49815;51.618;0.336;2022-09-06T15:57:47;4;3;
63662;PMS5003;49815;51.618;0.336;2022-09-06T16:00:12;7;2;
63662;PMS5003;49815;51.618;0.336;2022-09-06T16:02:38;1;1;
63662;PMS5003;49815;51.618;0.336;2022-09-06T16:05:03;3;1;
63662;PMS5003;49815;51.618;0.336;2022-09-06T16:07:29;5;2;
63662;PMS5003;49815;51.618;0.336;2022-09-06T16:09:54;3;3;
63662;PMS5003;49815;51.618;0.336;2022-09-06T16:12:28;4;4;
63662;PMS5003;49815;51.618;0.336;2022-09-06T16:14:44;7;4;
63662;PMS5003;49815;51.618;0.336;2022-09-06T16:17:09;3;3;
63662;PMS5003;49815;51.618;0.336;2022-09-06T16:19:34;5;3;
63662;PMS5003;49815;51.618;0.336;2022-09-06T16:21:59;2;2;
63662;PMS5003;49815;51.618;0.336;2022-09-06T16:24:24;2;2;
63662;PMS5003;49815;51.618;0.336;2022-09-06T16:26:49;2;2;
63662;PMS5003;49815;51.618;0.336;2022-09-06T16:29:15;3;1;
63662;PMS5003;49815;51.618;0.336;2022-09-06T16:31:40;6;4;
63662;PMS5003;49815;51.618;0.336;2022-09-06T16:34:05;4;3;
63662;PMS5003;49815;51.618;0.336;2022-09-06T16:36:30;6;4;
63662;PMS5003;49815;51.618;0.336;2022-09-06T16:38:55;7;2;
63662;PMS5003;49815;51.618;0.336;2022-09-06T16:41:20;1;1;
63662;PMS5003;49815;51.618;0.336;2022-09-06T16:43:46;3;3;
63662;PMS5003;49815;51.618;0.336;2022-09-06T16:46:10;4;3;
63662;PMS5003;49815;51.618;0.336;2022-09-06T16:48:35;3;3;
63662;PMS5003;49815;51.618;0.336;2022-09-06T16:51:07;5;3;
63662;PMS5003;49815;51.618;0.336;2022-09-06T16:53:26;3;3;
63662;PMS5003;49815;51.618;0.336;2022-09-06T16:55:52;4;4;
63662;PMS5003;49815;51.618;0.336;2022-09-06T16:58:17;8;4;
63662;PMS5003;49815;51.618;0.336;2022-09-06T17:00:43;4;4;
63662;PMS5003;49815;51.618;0.336;2022-09-06T17:03:13;4;2;